Time;durP1;ratioP1;P1;durP2;ratioP2;P2;SDS_P1;SDS_P2;PMS_P1;PMS_P2;Temp;Humidity;BMP_temperature;BMP_pressure;BME280_temperature;BME280_humidity;BME280_pressure;Samples;Min_cycle;Max_cycle;Signal;HPM_P1;HPM_P2
2023/02/28 00:01:29;;;;;;;5.22;2.00;;;;;;;4.86;73.62;101945.56;4983756;28;20050;-55
2023/02/28 00:03:57;;;;;;;3.22;1.63;;;;;;;4.86;73.43;101948.13;4984755;28;20061;-50
2023/02/28 00:06:24;;;;;;;3.25;1.75;;;;;;;4.83;73.63;101935.13;4981249;28;20173;-50
2023/02/28 00:08:53;;;;;;;4.82;1.70;;;;;;;4.80;73.95;101940.09;4982719;28;20419;-54
2023/02/28 00:11:20;;;;;;;3.05;1.75;;;;;;;4.78;74.38;101941.72;4979560;28;20411;-55
2023/02/28 00:13:47;;;;;;;3.13;1.67;;;;;;;4.76;74.16;101943.31;4982542;28;20190;-54
2023/02/28 00:16:18;;;;;;;5.47;1.90;;;;;;;4.77;73.63;101945.09;4980031;28;20101;-53
2023/02/28 00:18:48;;;;;;;3.85;1.85;;;;;;;4.77;74.37;101937.38;4981486;28;20054;-58
2023/02/28 00:21:16;;;;;;;3.45;2.03;;;;;;;4.78;74.61;101946.84;4998133;28;20053;-56
2023/02/28 00:23:43;;;;;;;3.15;1.50;;;;;;;4.80;74.24;101949.50;4998707;28;20054;-56
2023/02/28 00:26:10;;;;;;;4.55;1.70;;;;;;;4.82;74.38;101951.34;5001332;28;20433;-50
2023/02/28 00:28:36;;;;;;;3.40;1.55;;;;;;;4.82;73.59;101953.91;4999040;28;20430;-53
2023/02/28 00:31:03;;;;;;;3.90;2.08;;;;;;;4.84;74.03;101946.28;4994884;28;20128;-58
2023/02/28 00:33:30;;;;;;;2.92;1.70;;;;;;;4.85;74.42;101956.63;4998645;28;20057;-58
2023/02/28 00:36:12;;;;;;;2.55;1.55;;;;;;;4.84;74.51;101952.31;4999052;28;20116;-51
2023/02/28 00:38:40;;;;;;;2.85;1.58;;;;;;;4.88;74.08;101949.09;4995893;28;20132;-53
2023/02/28 00:41:08;;;;;;;2.83;1.52;;;;;;;4.88;73.95;101954.22;4999952;28;20429;-55
2023/02/28 00:43:37;;;;;;;3.70;1.63;;;;;;;4.91;74.03;101957.75;4994239;28;20133;-51
2023/02/28 00:46:04;;;;;;;3.95;1.55;;;;;;;4.92;74.10;101959.50;5003196;28;20042;-56
2023/02/28 00:48:32;;;;;;;4.05;1.40;;;;;;;4.93;73.92;101958.72;4998461;28;20049;-52
2023/02/28 00:50:58;;;;;;;2.30;1.45;;;;;;;4.95;74.54;101965.69;5001151;28;20433;-52
2023/02/28 00:53:25;;;;;;;2.17;1.05;;;;;;;4.96;74.23;101961.44;4998055;28;20565;-55
2023/02/28 00:55:52;;;;;;;2.65;1.33;;;;;;;4.96;74.41;101954.59;5001593;28;20042;-56
2023/02/28 00:58:19;;;;;;;2.28;1.15;;;;;;;4.98;74.15;101962.41;5000622;28;20104;-58
2023/02/28 01:00:48;;;;;;;2.50;1.10;;;;;;;4.99;74.11;101964.16;5002513;28;20695;-51
2023/02/28 01:03:18;;;;;;;4.60;1.30;;;;;;;5.01;74.53;101957.41;5003486;28;20042;-53
2023/02/28 01:05:45;;;;;;;4.85;1.40;;;;;;;5.01;74.14;101970.25;5000571;28;20081;-53
2023/02/28 01:08:13;;;;;;;3.13;1.35;;;;;;;5.03;74.19;101968.63;4998354;28;20038;-56
2023/02/28 01:10:40;;;;;;;2.17;1.13;;;;;;;5.03;74.94;101963.50;4999714;28;20108;-54
2023/02/28 01:13:07;;;;;;;4.30;1.33;;;;;;;5.05;74.23;101966.16;4999446;28;20828;-52
2023/02/28 01:15:34;;;;;;;2.05;1.00;;;;;;;5.06;74.57;101968.81;5003933;28;20550;-57
2023/02/28 01:18:01;;;;;;;4.03;1.40;;;;;;;5.07;74.60;101970.56;5001668;28;20517;-53
2023/02/28 01:20:28;;;;;;;2.28;1.05;;;;;;;5.08;74.78;101974.91;5006866;28;20140;-50
2023/02/28 01:22:57;;;;;;;2.90;1.25;;;;;;;5.10;74.66;101975.00;5007029;28;20064;-54
2023/02/28 01:25:26;;;;;;;3.95;1.42;;;;;;;5.10;75.16;101978.44;4999169;28;20060;-56
2023/02/28 01:27:54;;;;;;;2.55;1.08;;;;;;;5.12;74.65;101974.25;5004389;28;20099;-56
2023/02/28 01:30:22;;;;;;;1.77;0.93;;;;;;;5.12;74.41;101976.84;5004001;28;20066;-53
2023/02/28 01:32:53;;;;;;;2.53;1.30;;;;;;;5.12;74.72;101969.13;5005142;28;20111;-53
2023/02/28 01:35:21;;;;;;;3.72;1.25;;;;;;;5.14;75.18;101976.91;5003654;28;20073;-55
2023/02/28 01:37:50;;;;;;;3.53;1.27;;;;;;;5.14;74.52;101975.19;5009912;28;20528;-51
2023/02/28 01:40:18;;;;;;;2.05;1.13;;;;;;;5.12;75.09;101974.25;5006438;28;20083;-52
2023/02/28 01:42:46;;;;;;;3.08;1.55;;;;;;;5.12;75.41;101978.50;5005418;28;20494;-55
2023/02/28 01:47:58;;;;;;;2.53;1.20;;;;;;;5.11;74.58;101980.22;5079415;27;20418;-47
2023/02/28 01:50:29;;;;;;;3.30;1.77;;;;;;;5.09;74.96;101981.81;5036427;28;20047;-52
2023/02/28 01:53:01;;;;;;;4.45;1.52;;;;;;;5.10;75.53;101975.84;5060706;28;20045;-49
2023/02/28 01:55:28;;;;;;;2.88;1.75;;;;;;;5.10;75.28;101981.00;5057770;28;20086;-53
2023/02/28 01:57:58;;;;;;;2.75;0.93;;;;;;;5.12;74.89;101978.50;5062782;28;20056;-54
2023/02/28 02:00:27;;;;;;;3.65;1.60;;;;;;;5.12;75.02;101979.41;5059815;28;20128;-48
2023/02/28 02:02:58;;;;;;;3.08;1.38;;;;;;;5.13;74.91;101981.16;5061428;28;20064;-48
2023/02/28 02:05:30;;;;;;;3.55;1.50;;;;;;;5.14;74.62;101980.34;5058991;28;20045;-57
2023/02/28 02:08:02;;;;;;;1.92;1.02;;;;;;;5.14;74.86;101972.63;5059918;28;20504;-54
2023/02/28 02:10:38;;;;;;;3.65;1.58;;;;;;;5.14;75.39;101975.19;5057605;28;20076;-57
2023/02/28 02:16:31;;;;;;;4.00;1.55;;;;;;;5.14;74.68;101982.03;5045056;27;20398;-49
2023/02/28 02:19:14;;;;;;;2.83;1.05;;;;;;;5.14;75.25;101972.63;5016476;28;20472;-53
2023/02/28 02:35:27;;;;;;;5.57;3.47;;;;;;;5.13;74.53;101972.56;5019189;28;20408;-50
2023/02/28 02:41:03;;;;;;;3.72;1.58;;;;;;;5.13;75.40;101963.16;5018713;28;20412;-51
2023/02/28 02:43:36;;;;;;;3.08;1.52;;;;;;;5.15;75.26;101968.38;5013031;28;20064;-57
2023/02/28 02:46:09;;;;;;;4.13;1.80;;;;;;;5.16;74.70;101969.28;5014612;28;20124;-50
2023/02/28 02:48:40;;;;;;;3.70;1.45;;;;;;;5.18;75.27;101967.66;5015528;28;20136;-53
2023/02/28 02:51:13;;;;;;;4.45;1.30;;;;;;;5.17;74.93;101965.91;5015883;28;20109;-51
2023/02/28 02:53:49;;;;;;;3.55;1.52;;;;;;;5.17;74.90;101958.19;5015992;28;20046;-50
2023/02/28 02:56:23;;;;;;;3.40;1.45;;;;;;;5.14;75.09;101957.22;5011206;28;20068;-52
2023/02/28 02:58:54;;;;;;;8.13;1.52;;;;;;;5.13;75.09;101954.56;5020230;28;20113;-47
2023/02/28 03:01:28;;;;;;;6.40;1.50;;;;;;;5.12;74.89;101958.84;5010327;28;20060;-53
2023/02/28 03:04:07;;;;;;;6.82;1.40;;;;;;;5.11;74.95;101957.09;5021481;28;20042;-53
2023/02/28 03:06:35;;;;;;;2.67;1.35;;;;;;;5.10;74.74;101957.88;5009356;28;20057;-55
2023/02/28 03:09:02;;;;;;;3.50;1.25;;;;;;;5.10;75.50;101957.88;5009167;28;20052;-54
2023/02/28 03:11:30;;;;;;;2.67;1.25;;;;;;;5.10;75.35;101949.31;5017242;28;20042;-52
2023/02/28 03:16:49;;;;;;;3.35;1.33;;;;;;;5.10;74.83;101955.31;5021921;27;20418;-54
2023/02/28 03:27:27;;;;;;;1.75;0.80;;;;;;;5.08;74.68;101961.16;5054201;27;20993;-49
2023/02/28 03:30:10;;;;;;;3.58;1.70;;;;;;;5.08;75.23;101956.94;5030843;28;20046;-54
2023/02/28 03:32:58;;;;;;;6.60;2.60;;;;;;;5.06;74.94;101958.53;5042709;28;20103;-49
2023/02/28 03:35:30;;;;;;;2.90;1.88;;;;;;;5.07;74.79;101964.56;5036657;28;20059;-52
2023/02/28 03:38:07;;;;;;;3.25;2.25;;;;;;;5.05;75.10;101956.78;5041930;28;20529;-50
2023/02/28 03:40:37;;;;;;;2.35;0.82;;;;;;;5.05;74.66;101961.91;5035349;28;20148;-56
2023/02/28 03:43:11;;;;;;;3.70;1.80;;;;;;;5.04;74.96;101964.41;5032685;28;20085;-51
2023/02/28 03:45:41;;;;;;;2.30;1.75;;;;;;;5.02;75.41;101956.59;5034665;28;20551;-50
2023/02/28 03:48:15;;;;;;;2.53;1.85;;;;;;;5.01;74.78;101954.84;5037196;28;20049;-55
2023/02/28 03:50:45;;;;;;;2.53;1.55;;;;;;;4.98;75.06;101955.59;5015863;28;20049;-53
2023/02/28 03:56:00;;;;;;;2.28;2.00;;;;;;;4.95;74.90;101954.53;5003986;27;20400;-54
2023/02/28 04:01:15;;;;;;;2.90;0.52;;;;;;;4.87;74.94;101952.44;5033680;28;20410;-53
2023/02/28 04:03:42;;;;;;;2.65;0.60;;;;;;;4.86;75.39;101958.38;5018909;28;20463;-55
2023/02/28 04:06:17;;;;;;;2.08;1.23;;;;;;;4.84;75.27;101957.44;5015306;28;20107;-51
2023/02/28 04:08:44;;;;;;;1.25;0.47;;;;;;;4.85;75.19;101958.31;5020386;28;20046;-50
2023/02/28 04:13:49;;;;;;;5.45;2.15;;;;;;;4.84;75.71;101962.59;5019402;28;20410;-50
2023/02/28 04:16:16;;;;;;;2.33;1.98;;;;;;;4.84;75.76;101967.72;5020038;28;20586;-54
2023/02/28 04:19:04;;;;;;;3.70;2.30;;;;;;;4.84;75.14;101957.44;5015997;28;20077;-54
2023/02/28 04:21:34;;;;;;;2.75;2.28;;;;;;;4.84;75.13;101957.44;5018215;28;20060;-49
2023/02/28 04:24:02;;;;;;;3.20;2.28;;;;;;;4.85;75.52;101950.59;5018738;28;20077;-53
2023/02/28 04:26:31;;;;;;;3.15;2.05;;;;;;;4.84;75.28;101949.75;5017878;28;20053;-55
2023/02/28 04:28:59;;;;;;;3.08;2.50;;;;;;;4.85;75.83;101954.06;5019594;28;20053;-51
2023/02/28 04:31:26;;;;;;;2.17;2.03;;;;;;;4.83;75.27;101945.38;5017476;28;20049;-52
2023/02/28 04:33:53;;;;;;;1.95;1.60;;;;;;;4.83;75.39;101949.66;5016922;28;20141;-51
2023/02/28 04:36:22;;;;;;;2.55;1.95;;;;;;;4.85;75.40;101956.63;5019060;28;20239;-57
2023/02/28 04:38:49;;;;;;;1.95;1.63;;;;;;;4.86;75.33;101958.38;5016701;28;20135;-53
2023/02/28 04:41:16;;;;;;;1.83;1.73;;;;;;;4.87;74.92;101962.72;5017015;28;20501;-54
2023/02/28 04:43:43;;;;;;;1.83;0.70;;;;;;;4.88;75.29;101964.50;5017288;28;20749;-48
2023/02/28 04:46:10;;;;;;;4.55;1.88;;;;;;;4.89;74.82;101976.53;5046451;28;20053;-53
2023/02/28 04:48:38;;;;;;;2.10;1.88;;;;;;;4.91;75.26;101974.03;5020412;28;20042;-55
2023/02/28 04:51:08;;;;;;;2.25;2.05;;;;;;;4.89;75.06;101966.25;5018769;28;20053;-52
2023/02/28 04:53:37;;;;;;;2.92;2.30;;;;;;;4.89;75.62;101966.25;5014202;28;20148;-50
2023/02/28 04:56:04;;;;;;;6.95;2.85;;;;;;;4.89;74.98;101971.41;5018927;28;20112;-54
2023/02/28 04:58:30;;;;;;;4.50;2.10;;;;;;;4.88;75.04;101969.63;5016950;28;20104;-55
2023/02/28 05:01:27;;;;;;;3.28;2.50;;;;;;;4.85;75.42;101969.47;5016973;28;20116;-54
2023/02/28 05:03:56;;;;;;;4.35;3.42;;;;;;;4.85;75.77;101969.47;5008948;28;20054;-53
2023/02/28 05:06:25;;;;;;;7.00;3.55;;;;;;;4.84;75.51;101972.84;5019184;28;20314;-53
2023/02/28 05:08:52;;;;;;;3.97;2.63;;;;;;;4.79;75.91;101964.00;5012591;28;20069;-52
2023/02/28 05:13:56;;;;;;;6.28;2.05;;;;;;;4.78;76.47;101967.38;5024289;27;20394;-48
2023/02/28 05:16:22;;;;;;;4.72;2.08;;;;;;;4.77;76.33;101975.91;5017633;28;20354;-54
2023/02/28 05:18:49;;;;;;;4.28;1.73;;;;;;;4.78;76.39;101971.63;5027137;28;20140;-48
2023/02/28 05:21:30;;;;;;;4.28;1.70;;;;;;;4.76;76.21;101968.97;5020115;28;20262;-53
2023/02/28 05:23:59;;;;;;;5.40;1.88;;;;;;;4.77;76.22;101968.19;5018579;28;20057;-53
2023/02/28 05:26:27;;;;;;;2.80;1.27;;;;;;;4.75;75.97;101972.34;5018955;28;20049;-46
2023/02/28 05:28:54;;;;;;;4.15;1.77;;;;;;;4.76;76.44;101975.00;5014950;28;20119;-57
2023/02/28 05:31:21;;;;;;;2.90;1.30;;;;;;;4.76;76.38;101974.09;5015562;28;20049;-53
2023/02/28 05:33:48;;;;;;;3.75;1.42;;;;;;;4.78;76.04;101976.75;5000662;28;20172;-55
2023/02/28 05:36:14;;;;;;;5.35;1.38;;;;;;;4.78;76.39;101972.53;5014485;28;20372;-53
2023/02/28 05:38:41;;;;;;;4.18;1.52;;;;;;;4.78;76.22;101975.09;5013875;28;20081;-54
2023/02/28 05:41:09;;;;;;;2.03;1.15;;;;;;;4.77;76.34;101968.19;5018128;28;20166;-47
2023/02/28 05:43:37;;;;;;;3.00;1.27;;;;;;;4.76;75.93;101974.09;5015634;28;20062;-53
2023/02/28 05:46:06;;;;;;;5.75;1.10;;;;;;;4.78;76.10;101974.19;4997888;28;20077;-53
2023/02/28 05:48:35;;;;;;;3.03;1.10;;;;;;;4.77;76.30;101968.19;5015083;28;20124;-53
2023/02/28 05:51:02;;;;;;;4.78;0.98;;;;;;;4.76;75.57;101979.25;5015568;28;20949;-51
2023/02/28 05:53:30;;;;;;;4.82;1.35;;;;;;;4.78;75.56;101982.78;5007962;28;20108;-53
2023/02/28 05:55:56;;;;;;;3.17;1.15;;;;;;;4.79;75.34;101979.41;5014436;28;20104;-51
2023/02/28 05:58:28;;;;;;;2.63;1.10;;;;;;;4.80;75.59;101976.03;5014400;28;20096;-55
2023/02/28 06:00:55;;;;;;;5.05;1.05;;;;;;;4.82;75.74;101984.72;5014926;28;20395;-54
2023/02/28 06:03:22;;;;;;;2.33;1.10;;;;;;;4.84;75.97;101982.22;5017415;28;20381;-50
2023/02/28 06:05:50;;;;;;;4.03;1.25;;;;;;;4.83;75.81;101991.59;5016894;28;20489;-52
2023/02/28 06:08:18;;;;;;;2.67;1.33;;;;;;;4.84;76.04;101988.25;5019211;28;20188;-56
2023/02/28 06:10:45;;;;;;;1.38;0.80;;;;;;;4.85;75.73;101992.59;5021508;28;20056;-53
2023/02/28 06:13:12;;;;;;;2.88;1.23;;;;;;;4.85;75.22;101990.00;5018361;28;20034;-52
2023/02/28 06:15:39;;;;;;;3.50;1.02;;;;;;;4.85;76.11;101995.16;5016610;28;20421;-51
2023/02/28 06:18:06;;;;;;;2.83;1.42;;;;;;;4.83;75.71;101999.31;5017684;28;20476;-56
2023/02/28 06:20:33;;;;;;;6.05;1.13;;;;;;;4.84;75.75;101993.41;5022307;28;20131;-55
2023/02/28 06:22:59;;;;;;;2.90;1.20;;;;;;;4.83;75.10;101989.03;5012360;28;20041;-54
2023/02/28 06:25:27;;;;;;;2.60;1.08;;;;;;;4.84;75.27;101982.22;5004039;28;20053;-54
2023/02/28 06:27:55;;;;;;;3.50;1.30;;;;;;;4.83;76.10;101991.59;5000327;28;20046;-51
2023/02/28 06:30:25;;;;;;;3.67;1.55;;;;;;;4.84;75.51;101988.25;4982655;28;20096;-52
2023/02/28 06:32:52;;;;;;;6.53;1.42;;;;;;;4.84;75.43;101988.25;5005115;28;20044;-50
2023/02/28 06:35:20;;;;;;;4.40;1.25;;;;;;;4.83;75.96;101989.03;5003424;28;20057;-58
2023/02/28 06:37:46;;;;;;;4.65;1.63;;;;;;;4.84;75.74;101987.38;5003731;28;20054;-49
2023/02/28 06:40:13;;;;;;;3.72;1.50;;;;;;;4.84;76.03;101985.69;5001883;28;20397;-53
2023/02/28 06:42:40;;;;;;;3.80;1.63;;;;;;;4.87;75.47;101992.66;5003626;28;20058;-53
2023/02/28 06:45:08;;;;;;;6.70;1.85;;;;;;;4.86;75.86;101991.78;5000402;28;20459;-53
2023/02/28 06:47:38;;;;;;;4.47;1.90;;;;;;;4.85;75.43;101990.00;4999546;28;20145;-51
2023/02/28 06:50:06;;;;;;;4.10;1.95;;;;;;;4.84;76.31;101997.63;5002471;28;20129;-54
2023/02/28 06:52:35;;;;;;;7.25;1.85;;;;;;;4.80;75.52;101994.00;4986671;28;20046;-47
2023/02/28 06:55:04;;;;;;;5.38;1.65;;;;;;;4.79;75.60;101989.69;4989465;28;20045;-52
2023/02/28 06:57:32;;;;;;;5.57;1.75;;;;;;;4.79;76.20;101994.81;5003479;28;20125;-51
2023/02/28 07:00:02;;;;;;;4.13;1.77;;;;;;;4.77;75.89;101993.88;4999728;28;20057;-53
2023/02/28 07:02:29;;;;;;;6.00;1.88;;;;;;;4.76;75.79;102000.69;5003698;28;20049;-58
2023/02/28 07:04:56;;;;;;;4.70;1.77;;;;;;;4.75;76.45;102004.06;5000597;28;20403;-57
2023/02/28 07:07:22;;;;;;;6.07;2.42;;;;;;;4.71;76.71;102002.13;5004300;28;20053;-56
2023/02/28 07:09:49;;;;;;;7.32;2.63;;;;;;;4.71;76.96;101996.09;5004242;28;20054;-56
2023/02/28 07:12:15;;;;;;;7.40;2.67;;;;;;;4.71;76.62;102007.25;5006164;28;20136;-50
2023/02/28 07:14:42;;;;;;;7.78;2.90;;;;;;;4.73;76.83;102009.91;5002543;28;20042;-52
2023/02/28 07:17:11;;;;;;;9.68;3.42;;;;;;;4.71;77.45;102007.25;5001881;28;20085;-51
2023/02/28 07:19:39;;;;;;;7.70;2.75;;;;;;;4.69;77.99;102013.13;4996868;28;20407;-53
2023/02/28 07:22:06;;;;;;;9.57;3.78;;;;;;;4.71;77.54;102011.50;4999341;28;20045;-53
2023/02/28 07:24:33;;;;;;;8.40;4.13;;;;;;;4.72;77.78;102019.28;5000946;28;20050;-51
2023/02/28 07:27:01;;;;;;;6.20;2.30;;;;;;;4.72;78.14;102018.38;5000272;28;20077;-55
2023/02/28 07:29:28;;;;;;;11.57;3.90;;;;;;;4.74;77.74;102021.94;5001484;28;20050;-54
2023/02/28 07:31:55;;;;;;;10.43;4.00;;;;;;;4.76;77.78;102022.88;4997374;28;20082;-54
2023/02/28 07:34:22;;;;;;;11.35;3.97;;;;;;;4.77;77.85;102019.53;4996627;28;20050;-56
2023/02/28 07:36:53;;;;;;;10.93;4.10;;;;;;;4.80;77.38;102021.38;4997828;28;20058;-53
2023/02/28 07:39:21;;;;;;;11.07;3.92;;;;;;;4.82;77.40;102023.22;5006540;28;20482;-55
2023/02/28 07:41:47;;;;;;;9.63;4.00;;;;;;;4.80;78.48;102027.38;5007181;28;20057;-53
2023/02/28 07:44:14;;;;;;;7.93;3.53;;;;;;;4.82;77.84;102023.22;4997530;28;20133;-51
2023/02/28 07:46:41;;;;;;;10.13;4.43;;;;;;;4.84;77.97;102023.31;5008572;28;20112;-54
2023/02/28 07:49:07;;;;;;;10.65;4.13;;;;;;;4.84;77.67;102029.34;4997760;28;20141;-50
2023/02/28 07:51:34;;;;;;;13.75;5.00;;;;;;;4.86;78.16;102027.72;5002652;28;20054;-49
2023/02/28 07:54:00;;;;;;;15.20;4.70;;;;;;;4.87;78.12;102039.75;4994361;28;20108;-51
2023/02/28 07:56:27;;;;;;;10.68;3.67;;;;;;;4.89;78.23;102038.16;4992355;28;20042;-56
2023/02/28 07:58:55;;;;;;;12.52;5.05;;;;;;;4.92;77.90;102036.53;4994287;28;20555;-52
2023/02/28 08:01:21;;;;;;;13.65;4.80;;;;;;;4.93;77.98;102039.19;5003335;28;20099;-56
2023/02/28 08:03:48;;;;;;;12.88;4.05;;;;;;;4.95;78.13;102031.56;5004730;28;20057;-58
2023/02/28 08:06:18;;;;;;;13.50;4.35;;;;;;;4.99;78.12;102028.34;4997917;28;20054;-54
2023/02/28 08:08:47;;;;;;;9.60;3.85;;;;;;;5.01;78.11;102021.63;4994292;28;20053;-52
2023/02/28 08:11:15;;;;;;;14.82;4.97;;;;;;;5.04;76.95;102032.06;4997964;28;20058;-55
2023/02/28 08:13:43;;;;;;;10.20;4.00;;;;;;;5.06;77.01;102025.31;4992355;28;20096;-48
2023/02/28 08:16:14;;;;;;;14.80;5.03;;;;;;;5.10;77.48;102021.22;4997931;28;20073;-51
2023/02/28 08:18:40;;;;;;;12.23;4.15;;;;;;;5.12;77.77;102029.88;4987636;28;20046;-56
2023/02/28 08:21:09;;;;;;;11.40;3.90;;;;;;;5.13;77.08;102027.41;4990982;28;20460;-52
2023/02/28 08:23:36;;;;;;;12.65;4.47;;;;;;;5.16;77.70;102023.22;5007331;28;20053;-51
2023/02/28 08:26:03;;;;;;;13.27;4.53;;;;;;;5.19;77.80;102026.84;4999266;28;20074;-58
2023/02/28 08:28:30;;;;;;;9.25;4.38;;;;;;;5.20;76.82;102020.00;5002997;28;20041;-57
2023/02/28 08:30:58;;;;;;;18.25;4.07;;;;;;;5.25;76.89;102026.25;4993402;28;20049;-54
2023/02/28 08:33:27;;;;;;;11.80;4.25;;;;;;;5.26;77.75;102020.31;4998687;28;20081;-56
2023/02/28 08:35:55;;;;;;;10.15;4.18;;;;;;;5.28;77.58;102022.16;4996456;28;20479;-50
2023/02/28 08:38:23;;;;;;;11.93;4.45;;;;;;;5.30;77.12;102018.78;5001847;28;20072;-54
2023/02/28 08:40:49;;;;;;;12.00;4.20;;;;;;;5.31;77.35;102017.97;5014752;28;20525;-58
2023/02/28 08:43:16;;;;;;;13.35;4.10;;;;;;;5.32;77.59;102012.03;5006091;28;20460;-57
2023/02/28 08:45:43;;;;;;;11.52;4.38;;;;;;;5.33;77.33;102018.97;5000975;28;20096;-51
2023/02/28 08:48:09;;;;;;;14.57;4.53;;;;;;;5.34;77.16;102016.44;4998986;28;20045;-49
2023/02/28 08:50:36;;;;;;;11.50;4.10;;;;;;;5.37;76.78;102021.75;4999910;28;20092;-53
2023/02/28 08:53:03;;;;;;;10.80;3.83;;;;;;;5.39;77.13;102014.09;5005589;28;20121;-51
2023/02/28 08:55:29;;;;;;;10.52;4.22;;;;;;;5.42;76.42;102013.38;4996355;28;20053;-56
2023/02/28 08:57:56;;;;;;;9.02;3.53;;;;;;;5.46;76.99;102015.28;4998384;28;20156;-56
2023/02/28 09:00:23;;;;;;;13.70;4.60;;;;;;;5.50;76.63;102017.22;4993658;28;20923;-51
2023/02/28 09:02:49;;;;;;;12.05;4.45;;;;;;;5.55;77.23;102020.00;5002173;28;20077;-51
2023/02/28 09:05:16;;;;;;;10.27;3.40;;;;;;;5.59;77.47;102012.53;4999849;28;20047;-52
2023/02/28 09:07:42;;;;;;;9.68;3.63;;;;;;;5.62;76.54;102015.28;4994938;28;20451;-53
2023/02/28 09:10:09;;;;;;;9.52;2.95;;;;;;;5.64;76.34;102021.34;4995239;28;20050;-57
2023/02/28 09:12:36;;;;;;;10.90;4.25;;;;;;;5.66;77.12;102019.75;4993283;28;20095;-48
2023/02/28 09:15:03;;;;;;;11.35;3.53;;;;;;;5.68;77.57;102024.97;4997934;28;20134;-50
2023/02/28 09:17:30;;;;;;;11.68;4.10;;;;;;;5.70;76.82;102018.22;5002032;28;20940;-50
2023/02/28 09:19:57;;;;;;;11.65;4.03;;;;;;;5.71;76.73;102017.38;4999439;28;20096;-50
2023/02/28 09:22:25;;;;;;;9.60;3.38;;;;;;;5.73;76.18;102022.63;4996446;28;20050;-49
2023/02/28 09:24:51;;;;;;;11.65;3.92;;;;;;;5.75;77.14;102023.59;4999506;28;20049;-49
2023/02/28 09:27:18;;;;;;;11.65;4.35;;;;;;;5.77;77.28;102027.09;4998671;28;20050;-55
2023/02/28 09:29:44;;;;;;;8.90;3.55;;;;;;;5.78;77.13;102018.59;5002053;28;20108;-47
2023/02/28 09:32:11;;;;;;;12.68;5.35;;;;;;;5.78;76.47;102019.47;5005855;28;20049;-53
2023/02/28 09:34:38;;;;;;;10.63;3.53;;;;;;;5.79;77.04;102020.34;5005890;28;20120;-55
2023/02/28 09:37:04;;;;;;;11.05;3.47;;;;;;;5.81;77.35;102018.72;5003240;28;20505;-49
2023/02/28 09:39:31;;;;;;;8.38;2.95;;;;;;;5.83;77.17;102017.13;5003345;28;20046;-54
2023/02/28 09:41:58;;;;;;;9.68;3.03;;;;;;;5.88;76.40;102020.78;5009142;28;20525;-51
2023/02/28 09:44:47;;;;;;;8.55;3.00;;;;;;;5.89;76.32;102022.56;5002225;28;20076;-55
2023/02/28 09:49:57;;;;;;;8.20;3.13;;;;;;;5.98;77.81;102021.25;5016311;27;20418;-50
2023/02/28 09:52:30;;;;;;;7.63;3.13;;;;;;;6.01;76.45;102021.41;5000193;28;20046;-53
2023/02/28 09:55:16;;;;;;;8.25;2.42;;;;;;;6.03;77.60;102018.13;5000573;28;20100;-57
2023/02/28 09:57:42;;;;;;;6.40;2.75;;;;;;;6.01;77.64;102018.84;4995489;28;20552;-50
2023/02/28 10:05:56;;;;;;;5.05;1.85;;;;;;;5.97;76.81;102014.31;5054324;27;20404;-58
2023/02/28 10:08:28;;;;;;;5.90;2.35;;;;;;;5.95;76.43;102015.94;5020572;28;20100;-50
2023/02/28 10:11:00;;;;;;;6.47;2.25;;;;;;;5.99;77.35;102023.91;5021202;28;20147;-54
2023/02/28 10:13:35;;;;;;;5.38;2.20;;;;;;;5.99;77.05;102017.84;5016031;28;20104;-50
2023/02/28 10:16:16;;;;;;;5.57;2.08;;;;;;;5.98;76.47;102021.25;5019740;28;20088;-57
2023/02/28 10:18:50;;;;;;;7.13;2.30;;;;;;;6.03;77.39;102009.47;5021494;28;20053;-53
2023/02/28 10:21:24;;;;;;;7.75;2.55;;;;;;;6.05;77.02;102018.19;5015191;28;20104;-54
2023/02/28 10:23:57;;;;;;;7.95;2.28;;;;;;;6.10;76.88;102018.41;5015313;28;20041;-53
2023/02/28 10:26:28;;;;;;;6.45;1.67;;;;;;;6.13;76.63;102016.88;5008723;28;20053;-55
2023/02/28 10:28:55;;;;;;;5.47;1.92;;;;;;;6.14;77.46;102017.72;5017721;28;20056;-54
2023/02/28 10:31:22;;;;;;;6.55;2.25;;;;;;;6.17;76.94;102021.34;5020260;28;20132;-56
2023/02/28 10:33:51;;;;;;;5.25;1.85;;;;;;;6.26;76.45;102017.44;5020035;28;20717;-47
2023/02/28 10:36:20;;;;;;;7.03;2.13;;;;;;;6.32;77.05;102010.03;5021921;28;20081;-52
2023/02/28 10:38:47;;;;;;;6.40;2.22;;;;;;;6.39;76.27;102001.75;5019623;28;20088;-57
2023/02/28 10:41:26;;;;;;;7.05;2.42;;;;;;;6.45;76.68;102013.16;5021276;28;20045;-52
2023/02/28 10:44:15;;;;;;;6.70;2.25;;;;;;;6.48;75.83;102015.88;5018456;28;20539;-54
2023/02/28 10:46:42;;;;;;;6.78;2.25;;;;;;;6.46;76.76;102004.63;5010385;28;20127;-56
2023/02/28 10:49:19;;;;;;;8.07;3.35;;;;;;;6.44;77.09;102007.13;5011302;28;20050;-51
2023/02/28 10:51:48;;;;;;;7.43;2.75;;;;;;;6.47;77.36;102006.38;5005827;28;20133;-50
2023/02/28 10:54:19;;;;;;;9.35;3.22;;;;;;;6.50;77.07;102003.94;5014541;28;20080;-54
2023/02/28 10:59:51;;;;;;;9.63;3.90;;;;;;;6.69;76.00;101997.94;5076971;27;20404;-54
2023/02/28 11:02:32;;;;;;;5.97;2.42;;;;;;;6.74;77.51;102005.84;5036811;28;20103;-54
2023/02/28 11:05:00;;;;;;;4.75;2.63;;;;;;;6.75;76.23;101998.19;5053258;28;20342;-51
2023/02/28 11:07:28;;;;;;;5.60;2.90;;;;;;;6.82;76.96;101996.78;5042050;28;20044;-54
2023/02/28 11:10:08;;;;;;;6.63;3.17;;;;;;;6.81;76.01;101993.34;5037968;28;20045;-49
2023/02/28 11:12:38;;;;;;;3.63;2.45;;;;;;;6.85;75.39;102002.06;5034922;28;21230;-54
2023/02/28 11:18:00;;;;;;;4.15;3.13;;;;;;;6.92;75.75;101993.78;5081816;27;20400;-55
2023/02/28 11:20:31;;;;;;;5.85;3.47;;;;;;;6.93;75.49;101987.81;5023502;28;20041;-51
2023/02/28 11:23:00;;;;;;;3.50;2.75;;;;;;;6.87;74.68;101990.16;5015030;28;20046;-54
2023/02/28 11:25:32;;;;;;;4.00;2.33;;;;;;;6.93;75.36;101987.81;5040003;28;20493;-50
2023/02/28 11:28:01;;;;;;;3.58;1.63;;;;;;;7.00;75.81;101985.53;5031948;28;20449;-51
2023/02/28 11:30:38;;;;;;;3.35;2.47;;;;;;;7.05;75.87;101981.44;5013752;28;20054;-53
2023/02/28 11:33:28;;;;;;;5.35;3.53;;;;;;;7.22;75.55;101983.88;5012935;28;20497;-54
2023/02/28 11:36:02;;;;;;;3.38;3.05;;;;;;;7.31;75.24;101981.66;5018919;28;20125;-51
2023/02/28 11:38:33;;;;;;;3.88;3.42;;;;;;;7.31;74.43;101979.09;5034982;28;20104;-54
2023/02/28 11:41:13;;;;;;;3.15;2.38;;;;;;;7.27;73.91;101972.06;5037418;28;20107;-54
2023/02/28 11:57:32;;;;;;;2.00;0.80;;;;;;;7.12;75.52;101964.56;5046990;27;20386;-51
2023/02/28 12:05:45;;;;;;;3.65;2.20;;;;;;;7.26;76.27;101960.00;5072334;27;20391;-54
2023/02/28 12:11:26;;;;;;;2.35;1.52;;;;;;;7.57;75.59;101961.25;5020752;28;20398;-57
2023/02/28 12:22:29;;;;;;;1.60;1.50;;;;;;;7.23;75.95;101957.28;5010330;28;20628;-57
2023/02/28 12:25:23;;;;;;;1.98;1.88;;;;;;;7.20;76.65;101950.31;4993500;28;20097;-52
2023/02/28 12:27:52;;;;;;;2.55;2.22;;;;;;;7.17;76.51;101951.03;4992182;28;20082;-53
2023/02/28 12:30:24;;;;;;;6.45;3.83;;;;;;;7.26;75.46;101952.25;4978128;28;20078;-56
2023/02/28 12:32:56;;;;;;;4.13;3.33;;;;;;;7.27;76.28;101941.13;4978810;28;20112;-51
2023/02/28 12:35:33;;;;;;;6.32;4.20;;;;;;;7.30;75.95;101938.69;4980226;28;20510;-53
2023/02/28 12:38:19;;;;;;;;;;;;;;;7.24;76.34;101935.84;4981615;28;20073;-51
2023/02/28 12:40:54;;;;;;;1.95;1.85;;;;;;;7.22;75.49;101933.19;4986660;28;19930;-53
2023/02/28 12:43:25;;;;;;;3.05;2.65;;;;;;;7.23;75.61;101934.09;4981437;28;20050;-55
2023/02/28 12:45:58;;;;;;;3.08;2.63;;;;;;;7.15;75.16;101921.75;5012405;28;20053;-52
2023/02/28 12:48:46;;;;;;;2.95;1.98;;;;;;;6.98;75.45;101917.56;4988044;28;20105;-54
2023/02/28 12:51:16;;;;;;;3.65;3.15;;;;;;;7.05;75.85;101917.03;4979257;28;20120;-54
2023/02/28 12:54:22;;;;;;;4.78;3.08;;;;;;;7.02;75.63;101915.19;4974274;28;20050;-55
2023/02/28 13:10:41;;;;;;;5.85;2.80;;;;;;;7.13;76.53;101920.78;5002071;28;20773;-51
2023/02/28 13:13:15;;;;;;;6.70;3.95;;;;;;;7.16;75.33;101922.66;4985815;28;20050;-51
2023/02/28 13:18:39;;;;;;;3.03;1.55;;;;;;;7.20;75.73;101909.06;5033710;28;20402;-57
2023/02/28 13:21:08;;;;;;;;;;;;;;;7.13;76.94;101902.75;4995359;28;20117;-56
2023/02/28 13:37:44;;;;;;;3.60;2.00;;;;;;;7.62;74.61;101882.34;5037909;28;20915;-52
2023/02/28 13:42:49;;;;;;;5.90;2.72;;;;;;;7.69;75.13;101874.03;5063324;27;20414;-56
2023/02/28 13:45:23;;;;;;;6.05;2.72;;;;;;;7.74;74.46;101881.06;5023000;28;20041;-56
2023/02/28 13:48:19;;;;;;;5.53;2.83;;;;;;;7.70;74.11;101878.38;5038743;28;20079;-57